Terminal Aerodrome Forecast
Issued by NWS Paducah, KY

Home | Current Version | Previous Version | Graphics & Text | Print | Product List | Glossary On
Versions: 1 2 3 4 5 6 7 8 9 10 11 12 13 14 15 16 17 18 19 20 21 22 23 24
000
FTUS43 KPAH 041108 AAB
TAFPAH
TAF AMD
KPAH 041108Z 0411/0506 00000KT 3SM BR SCT004 BKN035
      TEMPO 0411/0413 1/4SM FG VV002
     FM041400 VRB04KT P6SM BKN040
     FM050200 00000KT P6SM SCT050=

USA.gov is the U.S. government's official web portal to all federal, state and local government web resources and services.